sensor_id;sensor_type;location;lat;lon;timestamp;P1;durP1;ratioP1;P2;durP2;ratioP2
75191;SDS011;63771;52.580;9.734;2023-09-19T00:01:22;1.50;;;1.40;;
75191;SDS011;63771;52.580;9.734;2023-09-19T00:03:47;1.10;;;1.10;;
75191;SDS011;63771;52.580;9.734;2023-09-19T00:06:13;1.60;;;1.23;;
75191;SDS011;63771;52.580;9.734;2023-09-19T00:08:40;2.45;;;1.58;;
75191;SDS011;63771;52.580;9.734;2023-09-19T00:11:09;1.35;;;1.25;;
75191;SDS011;63771;52.580;9.734;2023-09-19T00:13:35;1.85;;;1.30;;
75191;SDS011;63771;52.580;9.734;2023-09-19T00:16:01;1.58;;;1.40;;
75191;SDS011;63771;52.580;9.734;2023-09-19T00:18:33;1.40;;;1.30;;
75191;SDS011;63771;52.580;9.734;2023-09-19T00:20:59;2.80;;;1.52;;
75191;SDS011;63771;52.580;9.734;2023-09-19T00:23:25;1.58;;;1.13;;
75191;SDS011;63771;52.580;9.734;2023-09-19T00:25:51;2.05;;;1.40;;
75191;SDS011;63771;52.580;9.734;2023-09-19T00:28:17;2.83;;;1.42;;
75191;SDS011;63771;52.580;9.734;2023-09-19T00:30:46;1.80;;;1.70;;
75191;SDS011;63771;52.580;9.734;2023-09-19T00:33:20;1.52;;;1.42;;
75191;SDS011;63771;52.580;9.734;2023-09-19T00:35:49;2.15;;;1.77;;
75191;SDS011;63771;52.580;9.734;2023-09-19T00:38:19;1.77;;;1.67;;
75191;SDS011;63771;52.580;9.734;2023-09-19T00:40:51;1.42;;;1.40;;
75191;SDS011;63771;52.580;9.734;2023-09-19T00:43:18;2.25;;;1.80;;
75191;SDS011;63771;52.580;9.734;2023-09-19T00:45:45;3.35;;;2.00;;
75191;SDS011;63771;52.580;9.734;2023-09-19T00:48:13;3.25;;;1.75;;
75191;SDS011;63771;52.580;9.734;2023-09-19T00:50:39;2.92;;;1.90;;
75191;SDS011;63771;52.580;9.734;2023-09-19T00:53:07;2.35;;;1.83;;
75191;SDS011;63771;52.580;9.734;2023-09-19T00:55:33;3.78;;;2.58;;
75191;SDS011;63771;52.580;9.734;2023-09-19T00:57:59;2.30;;;2.10;;
75191;SDS011;63771;52.580;9.734;2023-09-19T01:00:25;2.53;;;2.35;;
75191;SDS011;63771;52.580;9.734;2023-09-19T01:02:50;2.25;;;2.10;;
75191;SDS011;63771;52.580;9.734;2023-09-19T01:05:16;2.33;;;2.13;;
75191;SDS011;63771;52.580;9.734;2023-09-19T01:07:42;3.10;;;2.28;;
75191;SDS011;63771;52.580;9.734;2023-09-19T01:10:10;2.50;;;2.20;;
75191;SDS011;63771;52.580;9.734;2023-09-19T01:29:49;2.47;;;2.17;;
75191;SDS011;63771;52.580;9.734;2023-09-19T01:32:16;4.93;;;2.63;;
75191;SDS011;63771;52.580;9.734;2023-09-19T01:34:46;5.57;;;3.15;;
75191;SDS011;63771;52.580;9.734;2023-09-19T01:37:29;4.82;;;2.83;;
75191;SDS011;63771;52.580;9.734;2023-09-19T01:40:04;2.90;;;2.70;;
75191;SDS011;63771;52.580;9.734;2023-09-19T01:42:45;2.65;;;2.45;;
75191;SDS011;63771;52.580;9.734;2023-09-19T01:47:52;3.03;;;2.63;;
75191;SDS011;63771;52.580;9.734;2023-09-19T01:50:38;6.80;;;2.53;;
75191;SDS011;63771;52.580;9.734;2023-09-19T01:53:27;6.40;;;2.75;;
75191;SDS011;63771;52.580;9.734;2023-09-19T01:55:58;3.83;;;2.78;;
75191;SDS011;63771;52.580;9.734;2023-09-19T01:58:28;3.38;;;2.80;;
75191;SDS011;63771;52.580;9.734;2023-09-19T02:01:00;8.45;;;3.15;;
75191;SDS011;63771;52.580;9.734;2023-09-19T02:03:26;3.45;;;3.10;;
75191;SDS011;63771;52.580;9.734;2023-09-19T02:05:53;6.40;;;3.30;;
75191;SDS011;63771;52.580;9.734;2023-09-19T02:08:20;3.97;;;3.03;;
75191;SDS011;63771;52.580;9.734;2023-09-19T02:10:48;7.15;;;3.35;;
75191;SDS011;63771;52.580;9.734;2023-09-19T02:13:17;3.55;;;2.72;;
75191;SDS011;63771;52.580;9.734;2023-09-19T02:15:46;3.70;;;3.10;;
75191;SDS011;63771;52.580;9.734;2023-09-19T02:18:15;5.37;;;2.87;;
75191;SDS011;63771;52.580;9.734;2023-09-19T02:20:40;6.63;;;3.60;;
75191;SDS011;63771;52.580;9.734;2023-09-19T02:23:06;2.87;;;2.47;;
75191;SDS011;63771;52.580;9.734;2023-09-19T02:25:33;2.97;;;2.72;;
75191;SDS011;63771;52.580;9.734;2023-09-19T02:27:58;3.03;;;2.63;;
75191;SDS011;63771;52.580;9.734;2023-09-19T02:30:24;3.78;;;3.03;;
75191;SDS011;63771;52.580;9.734;2023-09-19T02:32:51;2.75;;;2.40;;
75191;SDS011;63771;52.580;9.734;2023-09-19T02:35:16;4.75;;;3.17;;
75191;SDS011;63771;52.580;9.734;2023-09-19T02:37:45;5.45;;;2.90;;
75191;SDS011;63771;52.580;9.734;2023-09-19T02:40:11;4.10;;;2.90;;
75191;SDS011;63771;52.580;9.734;2023-09-19T02:42:53;4.55;;;2.88;;
75191;SDS011;63771;52.580;9.734;2023-09-19T02:45:19;7.32;;;4.07;;
75191;SDS011;63771;52.580;9.734;2023-09-19T02:47:48;4.32;;;2.67;;
75191;SDS011;63771;52.580;9.734;2023-09-19T02:50:13;4.43;;;3.08;;
75191;SDS011;63771;52.580;9.734;2023-09-19T02:52:43;6.25;;;4.00;;
75191;SDS011;63771;52.580;9.734;2023-09-19T02:55:09;4.35;;;2.53;;
75191;SDS011;63771;52.580;9.734;2023-09-19T02:57:35;6.70;;;3.13;;
75191;SDS011;63771;52.580;9.734;2023-09-19T03:00:05;10.00;;;2.90;;
75191;SDS011;63771;52.580;9.734;2023-09-19T03:02:35;7.55;;;3.50;;
75191;SDS011;63771;52.580;9.734;2023-09-19T03:05:01;4.25;;;2.53;;
75191;SDS011;63771;52.580;9.734;2023-09-19T03:07:28;6.95;;;3.05;;
75191;SDS011;63771;52.580;9.734;2023-09-19T03:09:54;4.82;;;2.55;;
75191;SDS011;63771;52.580;9.734;2023-09-19T03:12:20;8.25;;;2.65;;
75191;SDS011;63771;52.580;9.734;2023-09-19T03:14:45;5.10;;;2.53;;
75191;SDS011;63771;52.580;9.734;2023-09-19T03:17:11;4.60;;;2.63;;
75191;SDS011;63771;52.580;9.734;2023-09-19T03:19:36;4.10;;;2.03;;
75191;SDS011;63771;52.580;9.734;2023-09-19T03:22:05;4.85;;;2.00;;
75191;SDS011;63771;52.580;9.734;2023-09-19T03:24:31;5.03;;;2.38;;
75191;SDS011;63771;52.580;9.734;2023-09-19T03:26:58;4.43;;;2.28;;
75191;SDS011;63771;52.580;9.734;2023-09-19T03:29:23;4.88;;;2.35;;
75191;SDS011;63771;52.580;9.734;2023-09-19T03:31:50;9.50;;;2.70;;
75191;SDS011;63771;52.580;9.734;2023-09-19T03:34:15;6.80;;;2.40;;
75191;SDS011;63771;52.580;9.734;2023-09-19T03:36:41;4.88;;;2.10;;
75191;SDS011;63771;52.580;9.734;2023-09-19T03:39:06;5.32;;;2.10;;
75191;SDS011;63771;52.580;9.734;2023-09-19T03:41:32;5.55;;;2.00;;
75191;SDS011;63771;52.580;9.734;2023-09-19T03:44:01;3.08;;;2.55;;
75191;SDS011;63771;52.580;9.734;2023-09-19T03:46:27;4.43;;;2.05;;
75191;SDS011;63771;52.580;9.734;2023-09-19T03:48:53;6.22;;;2.15;;
75191;SDS011;63771;52.580;9.734;2023-09-19T03:51:19;7.50;;;2.30;;
75191;SDS011;63771;52.580;9.734;2023-09-19T03:53:45;4.75;;;2.88;;
75191;SDS011;63771;52.580;9.734;2023-09-19T03:56:10;4.07;;;2.10;;
75191;SDS011;63771;52.580;9.734;2023-09-19T03:58:36;4.85;;;2.55;;
75191;SDS011;63771;52.580;9.734;2023-09-19T04:01:04;3.63;;;1.52;;
75191;SDS011;63771;52.580;9.734;2023-09-19T04:03:31;4.82;;;2.25;;
75191;SDS011;63771;52.580;9.734;2023-09-19T04:06:10;5.50;;;2.40;;
75191;SDS011;63771;52.580;9.734;2023-09-19T04:08:37;3.08;;;2.20;;
75191;SDS011;63771;52.580;9.734;2023-09-19T04:11:02;8.55;;;2.85;;
75191;SDS011;63771;52.580;9.734;2023-09-19T04:13:27;5.75;;;2.47;;
75191;SDS011;63771;52.580;9.734;2023-09-19T04:15:53;6.07;;;2.58;;
75191;SDS011;63771;52.580;9.734;2023-09-19T04:18:18;7.23;;;3.17;;
75191;SDS011;63771;52.580;9.734;2023-09-19T04:20:51;4.18;;;2.53;;
75191;SDS011;63771;52.580;9.734;2023-09-19T04:23:16;2.80;;;2.20;;
75191;SDS011;63771;52.580;9.734;2023-09-19T04:25:42;6.03;;;2.45;;
75191;SDS011;63771;52.580;9.734;2023-09-19T04:28:08;5.68;;;2.70;;
75191;SDS011;63771;52.580;9.734;2023-09-19T04:30:36;5.50;;;1.92;;
75191;SDS011;63771;52.580;9.734;2023-09-19T04:33:01;4.45;;;2.13;;
75191;SDS011;63771;52.580;9.734;2023-09-19T04:35:27;4.88;;;2.35;;
75191;SDS011;63771;52.580;9.734;2023-09-19T04:37:54;5.75;;;2.67;;
75191;SDS011;63771;52.580;9.734;2023-09-19T04:40:19;7.10;;;2.35;;
75191;SDS011;63771;52.580;9.734;2023-09-19T04:42:45;3.42;;;2.97;;
75191;SDS011;63771;52.580;9.734;2023-09-19T04:45:11;4.97;;;2.45;;
75191;SDS011;63771;52.580;9.734;2023-09-19T04:47:37;5.43;;;2.47;;
75191;SDS011;63771;52.580;9.734;2023-09-19T04:50:05;2.78;;;1.95;;
75191;SDS011;63771;52.580;9.734;2023-09-19T04:52:37;4.32;;;2.53;;
75191;SDS011;63771;52.580;9.734;2023-09-19T04:55:10;4.55;;;2.33;;
75191;SDS011;63771;52.580;9.734;2023-09-19T04:57:41;4.35;;;2.70;;
75191;SDS011;63771;52.580;9.734;2023-09-19T05:00:13;21.13;;;3.80;;
75191;SDS011;63771;52.580;9.734;2023-09-19T05:02:50;3.92;;;2.10;;
75191;SDS011;63771;52.580;9.734;2023-09-19T05:05:16;8.73;;;2.70;;
75191;SDS011;63771;52.580;9.734;2023-09-19T05:07:42;2.40;;;2.03;;
75191;SDS011;63771;52.580;9.734;2023-09-19T05:10:07;4.30;;;2.35;;
75191;SDS011;63771;52.580;9.734;2023-09-19T05:12:37;5.47;;;3.10;;
75191;SDS011;63771;52.580;9.734;2023-09-19T05:15:02;4.70;;;2.33;;
75191;SDS011;63771;52.580;9.734;2023-09-19T05:17:29;7.95;;;3.50;;
75191;SDS011;63771;52.580;9.734;2023-09-19T05:19:54;7.28;;;2.53;;
75191;SDS011;63771;52.580;9.734;2023-09-19T05:22:20;5.63;;;2.47;;
75191;SDS011;63771;52.580;9.734;2023-09-19T05:24:45;5.00;;;2.53;;
75191;SDS011;63771;52.580;9.734;2023-09-19T05:27:16;3.50;;;2.60;;
75191;SDS011;63771;52.580;9.734;2023-09-19T05:29:42;2.78;;;2.13;;
75191;SDS011;63771;52.580;9.734;2023-09-19T05:32:09;6.18;;;2.42;;
75191;SDS011;63771;52.580;9.734;2023-09-19T05:34:35;5.47;;;2.60;;
75191;SDS011;63771;52.580;9.734;2023-09-19T05:37:01;7.05;;;2.58;;
75191;SDS011;63771;52.580;9.734;2023-09-19T05:39:27;6.15;;;2.63;;
75191;SDS011;63771;52.580;9.734;2023-09-19T05:41:52;4.40;;;2.53;;
75191;SDS011;63771;52.580;9.734;2023-09-19T05:44:17;6.00;;;3.10;;
75191;SDS011;63771;52.580;9.734;2023-09-19T05:46:43;5.70;;;3.23;;
75191;SDS011;63771;52.580;9.734;2023-09-19T05:49:10;7.13;;;4.00;;
75191;SDS011;63771;52.580;9.734;2023-09-19T05:51:35;6.27;;;4.03;;
75191;SDS011;63771;52.580;9.734;2023-09-19T05:54:00;7.60;;;3.00;;
75191;SDS011;63771;52.580;9.734;2023-09-19T05:56:26;5.40;;;2.40;;
75191;SDS011;63771;52.580;9.734;2023-09-19T05:58:52;8.30;;;3.88;;
75191;SDS011;63771;52.580;9.734;2023-09-19T06:01:18;12.75;;;3.15;;
75191;SDS011;63771;52.580;9.734;2023-09-19T06:03:44;8.07;;;3.33;;
75191;SDS011;63771;52.580;9.734;2023-09-19T06:06:09;7.30;;;3.13;;
75191;SDS011;63771;52.580;9.734;2023-09-19T06:08:34;10.50;;;3.10;;
75191;SDS011;63771;52.580;9.734;2023-09-19T06:11:00;4.07;;;3.00;;
75191;SDS011;63771;52.580;9.734;2023-09-19T06:13:27;6.57;;;3.25;;
75191;SDS011;63771;52.580;9.734;2023-09-19T06:15:54;7.15;;;2.92;;
75191;SDS011;63771;52.580;9.734;2023-09-19T06:18:23;6.13;;;3.08;;
75191;SDS011;63771;52.580;9.734;2023-09-19T06:20:51;2.63;;;2.38;;
75191;SDS011;63771;52.580;9.734;2023-09-19T06:23:17;7.03;;;3.33;;
75191;SDS011;63771;52.580;9.734;2023-09-19T06:25:42;11.35;;;3.03;;
75191;SDS011;63771;52.580;9.734;2023-09-19T06:28:11;5.70;;;3.70;;
75191;SDS011;63771;52.580;9.734;2023-09-19T06:30:39;11.07;;;3.75;;
75191;SDS011;63771;52.580;9.734;2023-09-19T06:33:05;5.38;;;3.58;;
75191;SDS011;63771;52.580;9.734;2023-09-19T06:35:32;6.25;;;3.28;;
75191;SDS011;63771;52.580;9.734;2023-09-19T06:37:58;5.50;;;3.10;;
75191;SDS011;63771;52.580;9.734;2023-09-19T06:40:24;8.33;;;3.57;;
75191;SDS011;63771;52.580;9.734;2023-09-19T06:42:52;6.35;;;3.17;;
75191;SDS011;63771;52.580;9.734;2023-09-19T06:45:19;4.80;;;2.80;;
75191;SDS011;63771;52.580;9.734;2023-09-19T06:47:46;5.75;;;2.90;;
75191;SDS011;63771;52.580;9.734;2023-09-19T06:50:19;3.70;;;3.17;;
75191;SDS011;63771;52.580;9.734;2023-09-19T06:52:47;9.40;;;3.25;;
75191;SDS011;63771;52.580;9.734;2023-09-19T06:55:17;9.77;;;3.25;;
75191;SDS011;63771;52.580;9.734;2023-09-19T06:57:44;7.43;;;3.55;;
75191;SDS011;63771;52.580;9.734;2023-09-19T07:00:09;3.23;;;2.43;;
75191;SDS011;63771;52.580;9.734;2023-09-19T07:02:43;5.18;;;2.97;;
75191;SDS011;63771;52.580;9.734;2023-09-19T07:05:19;6.68;;;2.88;;
75191;SDS011;63771;52.580;9.734;2023-09-19T07:07:45;8.65;;;2.40;;
75191;SDS011;63771;52.580;9.734;2023-09-19T07:10:10;7.87;;;2.70;;
75191;SDS011;63771;52.580;9.734;2023-09-19T07:12:36;11.93;;;2.90;;
75191;SDS011;63771;52.580;9.734;2023-09-19T07:15:01;5.75;;;2.42;;
75191;SDS011;63771;52.580;9.734;2023-09-19T07:17:26;5.87;;;2.40;;
75191;SDS011;63771;52.580;9.734;2023-09-19T07:19:53;5.93;;;2.10;;
75191;SDS011;63771;52.580;9.734;2023-09-19T07:22:18;4.20;;;2.30;;
75191;SDS011;63771;52.580;9.734;2023-09-19T07:24:43;5.03;;;2.23;;
75191;SDS011;63771;52.580;9.734;2023-09-19T07:27:09;10.37;;;2.00;;
75191;SDS011;63771;52.580;9.734;2023-09-19T07:29:34;2.43;;;1.47;;
75191;SDS011;63771;52.580;9.734;2023-09-19T07:31:59;5.97;;;1.70;;
75191;SDS011;63771;52.580;9.734;2023-09-19T07:34:25;6.53;;;1.88;;
75191;SDS011;63771;52.580;9.734;2023-09-19T07:36:50;12.23;;;2.73;;
75191;SDS011;63771;52.580;9.734;2023-09-19T07:39:15;4.32;;;1.88;;
75191;SDS011;63771;52.580;9.734;2023-09-19T07:41:41;6.17;;;1.70;;
75191;SDS011;63771;52.580;9.734;2023-09-19T07:44:07;10.10;;;1.90;;
75191;SDS011;63771;52.580;9.734;2023-09-19T07:46:32;9.55;;;2.00;;
75191;SDS011;63771;52.580;9.734;2023-09-19T07:48:58;9.45;;;2.25;;
75191;SDS011;63771;52.580;9.734;2023-09-19T07:51:24;5.50;;;2.17;;
75191;SDS011;63771;52.580;9.734;2023-09-19T07:53:49;9.38;;;2.05;;
75191;SDS011;63771;52.580;9.734;2023-09-19T07:56:14;4.57;;;1.63;;
75191;SDS011;63771;52.580;9.734;2023-09-19T07:58:40;6.72;;;1.70;;
75191;SDS011;63771;52.580;9.734;2023-09-19T08:01:09;4.85;;;1.70;;
75191;SDS011;63771;52.580;9.734;2023-09-19T08:03:36;3.88;;;1.50;;
75191;SDS011;63771;52.580;9.734;2023-09-19T08:06:06;5.00;;;1.88;;
75191;SDS011;63771;52.580;9.734;2023-09-19T08:08:32;5.85;;;2.00;;
75191;SDS011;63771;52.580;9.734;2023-09-19T08:11:02;4.45;;;1.80;;
75191;SDS011;63771;52.580;9.734;2023-09-19T08:13:35;3.08;;;1.75;;
75191;SDS011;63771;52.580;9.734;2023-09-19T08:16:00;6.97;;;1.50;;
75191;SDS011;63771;52.580;9.734;2023-09-19T08:18:26;5.10;;;1.50;;
75191;SDS011;63771;52.580;9.734;2023-09-19T08:20:54;9.77;;;2.38;;
75191;SDS011;63771;52.580;9.734;2023-09-19T08:23:20;7.10;;;2.08;;
75191;SDS011;63771;52.580;9.734;2023-09-19T08:25:46;6.90;;;2.08;;
75191;SDS011;63771;52.580;9.734;2023-09-19T08:28:12;5.20;;;1.50;;
75191;SDS011;63771;52.580;9.734;2023-09-19T08:30:42;3.88;;;1.73;;
75191;SDS011;63771;52.580;9.734;2023-09-19T08:33:07;6.13;;;1.97;;
75191;SDS011;63771;52.580;9.734;2023-09-19T08:35:33;6.22;;;1.65;;
75191;SDS011;63771;52.580;9.734;2023-09-19T08:37:58;4.38;;;1.70;;
75191;SDS011;63771;52.580;9.734;2023-09-19T08:40:29;5.53;;;1.70;;
75191;SDS011;63771;52.580;9.734;2023-09-19T08:42:58;10.05;;;2.08;;
75191;SDS011;63771;52.580;9.734;2023-09-19T08:45:24;5.70;;;1.80;;
75191;SDS011;63771;52.580;9.734;2023-09-19T08:51:00;5.30;;;1.95;;
75191;SDS011;63771;52.580;9.734;2023-09-19T08:53:35;5.28;;;1.70;;
75191;SDS011;63771;52.580;9.734;2023-09-19T08:56:08;10.77;;;1.77;;
75191;SDS011;63771;52.580;9.734;2023-09-19T08:58:41;2.97;;;1.85;;
75191;SDS011;63771;52.580;9.734;2023-09-19T09:01:12;2.90;;;2.10;;
75191;SDS011;63771;52.580;9.734;2023-09-19T09:03:40;8.45;;;1.52;;
75191;SDS011;63771;52.580;9.734;2023-09-19T09:06:08;5.47;;;1.85;;
75191;SDS011;63771;52.580;9.734;2023-09-19T09:08:40;5.40;;;1.38;;
75191;SDS011;63771;52.580;9.734;2023-09-19T09:11:06;6.85;;;1.70;;
75191;SDS011;63771;52.580;9.734;2023-09-19T09:13:33;4.13;;;1.40;;
75191;SDS011;63771;52.580;9.734;2023-09-19T09:18:26;2.83;;;2.37;;
75191;SDS011;63771;52.580;9.734;2023-09-19T09:20:52;7.68;;;1.65;;
75191;SDS011;63771;52.580;9.734;2023-09-19T09:23:18;5.17;;;1.90;;
75191;SDS011;63771;52.580;9.734;2023-09-19T09:25:50;5.68;;;1.25;;
75191;SDS011;63771;52.580;9.734;2023-09-19T09:28:21;3.13;;;1.83;;
75191;SDS011;63771;52.580;9.734;2023-09-19T09:30:48;9.95;;;1.85;;
75191;SDS011;63771;52.580;9.734;2023-09-19T09:33:14;3.85;;;1.70;;
75191;SDS011;63771;52.580;9.734;2023-09-19T09:35:51;4.47;;;1.65;;
75191;SDS011;63771;52.580;9.734;2023-09-19T09:38:19;4.63;;;2.72;;
75191;SDS011;63771;52.580;9.734;2023-09-19T09:40:49;4.60;;;1.67;;
75191;SDS011;63771;52.580;9.734;2023-09-19T09:43:27;2.38;;;1.73;;
75191;SDS011;63771;52.580;9.734;2023-09-19T09:46:07;3.67;;;1.63;;
75191;SDS011;63771;52.580;9.734;2023-09-19T09:51:38;6.80;;;1.92;;
75191;SDS011;63771;52.580;9.734;2023-09-19T09:54:24;7.30;;;1.90;;
75191;SDS011;63771;52.580;9.734;2023-09-19T09:57:04;5.90;;;2.20;;
75191;SDS011;63771;52.580;9.734;2023-09-19T09:59:52;9.05;;;1.98;;
75191;SDS011;63771;52.580;9.734;2023-09-19T10:02:25;5.00;;;2.75;;
75191;SDS011;63771;52.580;9.734;2023-09-19T10:04:57;5.10;;;2.13;;
75191;SDS011;63771;52.580;9.734;2023-09-19T10:07:40;3.72;;;2.30;;
75191;SDS011;63771;52.580;9.734;2023-09-19T10:10:08;2.17;;;1.65;;
75191;SDS011;63771;52.580;9.734;2023-09-19T10:12:53;5.15;;;1.98;;
75191;SDS011;63771;52.580;9.734;2023-09-19T10:15:27;1.80;;;1.70;;
75191;SDS011;63771;52.580;9.734;2023-09-19T10:17:56;4.70;;;1.88;;
75191;SDS011;63771;52.580;9.734;2023-09-19T10:20:26;7.93;;;2.60;;
75191;SDS011;63771;52.580;9.734;2023-09-19T10:22:55;8.25;;;2.25;;
75191;SDS011;63771;52.580;9.734;2023-09-19T10:25:24;5.30;;;2.75;;
75191;SDS011;63771;52.580;9.734;2023-09-19T10:27:50;3.25;;;1.60;;
75191;SDS011;63771;52.580;9.734;2023-09-19T10:32:45;3.03;;;2.38;;
75191;SDS011;63771;52.580;9.734;2023-09-19T10:35:18;3.15;;;1.58;;
75191;SDS011;63771;52.580;9.734;2023-09-19T10:37:44;5.57;;;1.70;;
75191;SDS011;63771;52.580;9.734;2023-09-19T10:40:15;3.13;;;1.50;;
75191;SDS011;63771;52.580;9.734;2023-09-19T10:42:41;8.80;;;2.38;;
75191;SDS011;63771;52.580;9.734;2023-09-19T10:45:07;5.15;;;1.95;;
75191;SDS011;63771;52.580;9.734;2023-09-19T10:47:38;6.07;;;2.00;;
75191;SDS011;63771;52.580;9.734;2023-09-19T10:50:03;6.00;;;2.20;;
75191;SDS011;63771;52.580;9.734;2023-09-19T10:52:31;6.32;;;1.80;;
75191;SDS011;63771;52.580;9.734;2023-09-19T10:54:59;4.60;;;2.00;;
75191;SDS011;63771;52.580;9.734;2023-09-19T10:57:26;3.53;;;2.40;;
75191;SDS011;63771;52.580;9.734;2023-09-19T11:00:06;9.88;;;2.40;;
75191;SDS011;63771;52.580;9.734;2023-09-19T11:06:09;4.95;;;2.17;;
75191;SDS011;63771;52.580;9.734;2023-09-19T11:08:57;7.20;;;2.28;;
75191;SDS011;63771;52.580;9.734;2023-09-19T11:14:14;6.03;;;1.95;;
75191;SDS011;63771;52.580;9.734;2023-09-19T11:30:33;6.53;;;2.80;;
75191;SDS011;63771;52.580;9.734;2023-09-19T11:36:05;3.28;;;2.97;;
75191;SDS011;63771;52.580;9.734;2023-09-19T11:46:29;5.88;;;2.35;;
75191;SDS011;63771;52.580;9.734;2023-09-19T11:48:58;4.50;;;2.63;;
75191;SDS011;63771;52.580;9.734;2023-09-19T11:51:41;4.70;;;2.65;;
75191;SDS011;63771;52.580;9.734;2023-09-19T11:54:10;3.85;;;2.75;;
75191;SDS011;63771;52.580;9.734;2023-09-19T11:56:43;4.85;;;2.17;;
75191;SDS011;63771;52.580;9.734;2023-09-19T11:59:10;3.20;;;2.08;;
75191;SDS011;63771;52.580;9.734;2023-09-19T12:01:37;5.35;;;2.15;;
75191;SDS011;63771;52.580;9.734;2023-09-19T12:04:08;5.75;;;2.75;;
75191;SDS011;63771;52.580;9.734;2023-09-19T12:06:36;2.40;;;1.80;;
75191;SDS011;63771;52.580;9.734;2023-09-19T12:09:11;3.72;;;2.10;;
75191;SDS011;63771;52.580;9.734;2023-09-19T12:11:41;2.83;;;1.88;;
75191;SDS011;63771;52.580;9.734;2023-09-19T12:14:09;2.53;;;1.88;;
75191;SDS011;63771;52.580;9.734;2023-09-19T12:16:34;3.10;;;1.98;;
75191;SDS011;63771;52.580;9.734;2023-09-19T12:19:22;4.40;;;2.78;;
75191;SDS011;63771;52.580;9.734;2023-09-19T12:22:01;4.28;;;1.70;;
75191;SDS011;63771;52.580;9.734;2023-09-19T12:24:31;4.70;;;1.92;;
75191;SDS011;63771;52.580;9.734;2023-09-19T12:27:04;7.47;;;2.10;;
75191;SDS011;63771;52.580;9.734;2023-09-19T12:29:31;6.43;;;2.13;;
75191;SDS011;63771;52.580;9.734;2023-09-19T12:32:06;4.95;;;2.65;;
75191;SDS011;63771;52.580;9.734;2023-09-19T12:34:32;7.75;;;2.10;;
75191;SDS011;63771;52.580;9.734;2023-09-19T12:39:53;6.10;;;2.03;;
75191;SDS011;63771;52.580;9.734;2023-09-19T12:42:39;5.57;;;2.22;;
75191;SDS011;63771;52.580;9.734;2023-09-19T12:45:06;3.70;;;2.30;;
75191;SDS011;63771;52.580;9.734;2023-09-19T12:47:34;5.82;;;2.22;;
75191;SDS011;63771;52.580;9.734;2023-09-19T12:50:09;7.25;;;2.00;;
75191;SDS011;63771;52.580;9.734;2023-09-19T12:52:41;5.05;;;2.22;;
75191;SDS011;63771;52.580;9.734;2023-09-19T12:55:47;5.03;;;2.03;;
75191;SDS011;63771;52.580;9.734;2023-09-19T13:00:43;5.97;;;1.80;;
75191;SDS011;63771;52.580;9.734;2023-09-19T13:08:19;7.03;;;3.25;;
75191;SDS011;63771;52.580;9.734;2023-09-19T13:11:05;6.32;;;2.15;;
75191;SDS011;63771;52.580;9.734;2023-09-19T13:13:50;3.28;;;1.50;;
75191;SDS011;63771;52.580;9.734;2023-09-19T13:16:52;4.18;;;1.60;;
75191;SDS011;63771;52.580;9.734;2023-09-19T13:22:02;3.75;;;1.90;;
75191;SDS011;63771;52.580;9.734;2023-09-19T13:24:28;10.32;;;2.38;;
75191;SDS011;63771;52.580;9.734;2023-09-19T13:26:55;3.42;;;2.10;;
75191;SDS011;63771;52.580;9.734;2023-09-19T13:29:21;5.25;;;2.40;;
75191;SDS011;63771;52.580;9.734;2023-09-19T13:31:50;9.07;;;2.00;;
75191;SDS011;63771;52.580;9.734;2023-09-19T13:34:17;5.95;;;2.28;;
75191;SDS011;63771;52.580;9.734;2023-09-19T13:36:45;2.50;;;1.63;;
75191;SDS011;63771;52.580;9.734;2023-09-19T13:39:13;4.95;;;1.83;;
75191;SDS011;63771;52.580;9.734;2023-09-19T13:41:39;3.92;;;2.10;;
75191;SDS011;63771;52.580;9.734;2023-09-19T13:44:04;5.60;;;2.53;;
75191;SDS011;63771;52.580;9.734;2023-09-19T13:46:30;6.18;;;2.63;;
75191;SDS011;63771;52.580;9.734;2023-09-19T13:49:00;5.65;;;2.47;;
75191;SDS011;63771;52.580;9.734;2023-09-19T13:51:28;2.50;;;1.92;;
75191;SDS011;63771;52.580;9.734;2023-09-19T13:53:56;5.00;;;2.22;;
75191;SDS011;63771;52.580;9.734;2023-09-19T13:56:21;2.83;;;1.80;;
75191;SDS011;63771;52.580;9.734;2023-09-19T13:58:47;5.60;;;2.05;;
75191;SDS011;63771;52.580;9.734;2023-09-19T14:01:12;2.90;;;1.67;;
75191;SDS011;63771;52.580;9.734;2023-09-19T14:03:41;5.93;;;1.63;;
75191;SDS011;63771;52.580;9.734;2023-09-19T14:06:18;6.13;;;2.38;;
75191;SDS011;63771;52.580;9.734;2023-09-19T14:08:43;2.63;;;1.85;;
75191;SDS011;63771;52.580;9.734;2023-09-19T14:11:12;9.25;;;2.22;;
75191;SDS011;63771;52.580;9.734;2023-09-19T14:13:37;4.97;;;1.88;;
75191;SDS011;63771;52.580;9.734;2023-09-19T14:16:03;5.30;;;1.60;;
75191;SDS011;63771;52.580;9.734;2023-09-19T14:18:30;2.15;;;1.65;;
75191;SDS011;63771;52.580;9.734;2023-09-19T14:20:56;6.05;;;2.10;;
75191;SDS011;63771;52.580;9.734;2023-09-19T14:23:21;5.65;;;1.92;;
75191;SDS011;63771;52.580;9.734;2023-09-19T14:25:48;5.60;;;1.73;;
75191;SDS011;63771;52.580;9.734;2023-09-19T14:28:13;6.20;;;2.03;;
75191;SDS011;63771;52.580;9.734;2023-09-19T14:30:39;4.63;;;1.85;;
75191;SDS011;63771;52.580;9.734;2023-09-19T14:33:04;2.03;;;1.63;;
75191;SDS011;63771;52.580;9.734;2023-09-19T14:35:30;3.08;;;1.40;;
75191;SDS011;63771;52.580;9.734;2023-09-19T14:37:56;4.97;;;1.73;;
75191;SDS011;63771;52.580;9.734;2023-09-19T14:40:21;2.08;;;1.88;;
75191;SDS011;63771;52.580;9.734;2023-09-19T14:42:47;3.58;;;2.55;;
75191;SDS011;63771;52.580;9.734;2023-09-19T14:45:13;4.32;;;1.65;;
75191;SDS011;63771;52.580;9.734;2023-09-19T14:47:42;3.83;;;1.80;;
75191;SDS011;63771;52.580;9.734;2023-09-19T14:50:08;4.38;;;2.08;;
75191;SDS011;63771;52.580;9.734;2023-09-19T14:52:34;7.50;;;2.08;;
75191;SDS011;63771;52.580;9.734;2023-09-19T14:55:01;2.47;;;1.65;;
75191;SDS011;63771;52.580;9.734;2023-09-19T14:57:26;9.52;;;2.92;;
75191;SDS011;63771;52.580;9.734;2023-09-19T14:59:52;4.38;;;2.05;;
75191;SDS011;63771;52.580;9.734;2023-09-19T15:02:17;4.57;;;1.50;;
75191;SDS011;63771;52.580;9.734;2023-09-19T15:04:43;3.40;;;1.50;;
75191;SDS011;63771;52.580;9.734;2023-09-19T15:07:09;4.05;;;1.63;;
75191;SDS011;63771;52.580;9.734;2023-09-19T15:09:35;6.80;;;2.03;;
75191;SDS011;63771;52.580;9.734;2023-09-19T15:12:01;4.32;;;2.00;;
75191;SDS011;63771;52.580;9.734;2023-09-19T15:14:27;3.13;;;1.77;;
75191;SDS011;63771;52.580;9.734;2023-09-19T15:16:54;3.53;;;1.50;;
75191;SDS011;63771;52.580;9.734;2023-09-19T15:19:20;5.72;;;2.03;;
75191;SDS011;63771;52.580;9.734;2023-09-19T15:21:47;5.00;;;1.85;;
75191;SDS011;63771;52.580;9.734;2023-09-19T15:24:13;2.88;;;1.83;;
75191;SDS011;63771;52.580;9.734;2023-09-19T15:26:39;2.85;;;1.60;;
75191;SDS011;63771;52.580;9.734;2023-09-19T15:29:08;4.25;;;2.13;;
75191;SDS011;63771;52.580;9.734;2023-09-19T15:31:34;5.07;;;2.28;;
75191;SDS011;63771;52.580;9.734;2023-09-19T15:34:01;3.65;;;1.73;;
75191;SDS011;63771;52.580;9.734;2023-09-19T15:36:27;1.95;;;1.83;;
75191;SDS011;63771;52.580;9.734;2023-09-19T15:38:57;5.85;;;2.08;;
75191;SDS011;63771;52.580;9.734;2023-09-19T15:41:22;3.35;;;1.77;;
75191;SDS011;63771;52.580;9.734;2023-09-19T15:43:52;1.58;;;1.48;;
75191;SDS011;63771;52.580;9.734;2023-09-19T15:46:18;6.25;;;2.90;;
75191;SDS011;63771;52.580;9.734;2023-09-19T15:48:45;3.50;;;1.50;;
75191;SDS011;63771;52.580;9.734;2023-09-19T15:51:11;3.97;;;2.20;;
75191;SDS011;63771;52.580;9.734;2023-09-19T15:53:46;4.32;;;2.05;;
75191;SDS011;63771;52.580;9.734;2023-09-19T15:56:13;4.40;;;1.25;;
75191;SDS011;63771;52.580;9.734;2023-09-19T15:58:40;4.75;;;2.08;;
75191;SDS011;63771;52.580;9.734;2023-09-19T16:01:08;3.72;;;1.77;;
75191;SDS011;63771;52.580;9.734;2023-09-19T16:03:37;5.87;;;1.83;;
75191;SDS011;63771;52.580;9.734;2023-09-19T16:06:08;5.13;;;1.73;;
75191;SDS011;63771;52.580;9.734;2023-09-19T16:08:35;4.20;;;1.25;;
75191;SDS011;63771;52.580;9.734;2023-09-19T16:11:03;3.30;;;1.45;;